sensor_id;sensor_type;location;lat;lon;timestamp;P1;durP1;ratioP1;P2;durP2;ratioP2
25511;SDS011;13414;44.534;18.700;2023-03-13T00:00:56;123.95;;;65.90;;
25511;SDS011;13414;44.534;18.700;2023-03-13T00:03:24;115.68;;;64.18;;
25511;SDS011;13414;44.534;18.700;2023-03-13T00:05:56;114.28;;;61.15;;
25511;SDS011;13414;44.534;18.700;2023-03-13T00:08:24;114.95;;;62.35;;
25511;SDS011;13414;44.534;18.700;2023-03-13T00:10:54;132.18;;;72.22;;
25511;SDS011;13414;44.534;18.700;2023-03-13T00:13:24;148.35;;;79.10;;
25511;SDS011;13414;44.534;18.700;2023-03-13T00:15:58;156.30;;;83.35;;
25511;SDS011;13414;44.534;18.700;2023-03-13T00:18:26;150.18;;;79.00;;
25511;SDS011;13414;44.534;18.700;2023-03-13T00:20:56;142.10;;;75.65;;
25511;SDS011;13414;44.534;18.700;2023-03-13T00:23:24;139.70;;;73.95;;
25511;SDS011;13414;44.534;18.700;2023-03-13T00:25:55;140.27;;;72.97;;
25511;SDS011;13414;44.534;18.700;2023-03-13T00:28:24;134.82;;;76.00;;
25511;SDS011;13414;44.534;18.700;2023-03-13T00:30:59;137.60;;;71.97;;
25511;SDS011;13414;44.534;18.700;2023-03-13T00:33:27;138.10;;;75.22;;
25511;SDS011;13414;44.534;18.700;2023-03-13T00:35:57;136.05;;;73.72;;
25511;SDS011;13414;44.534;18.700;2023-03-13T00:38:26;119.55;;;64.47;;
25511;SDS011;13414;44.534;18.700;2023-03-13T00:41:00;118.00;;;64.60;;
25511;SDS011;13414;44.534;18.700;2023-03-13T00:43:30;126.75;;;70.10;;
25511;SDS011;13414;44.534;18.700;2023-03-13T00:45:59;126.85;;;66.80;;
25511;SDS011;13414;44.534;18.700;2023-03-13T00:48:27;127.80;;;68.75;;
25511;SDS011;13414;44.534;18.700;2023-03-13T00:50:54;120.13;;;62.67;;
25511;SDS011;13414;44.534;18.700;2023-03-13T00:53:22;97.35;;;51.85;;
25511;SDS011;13414;44.534;18.700;2023-03-13T00:55:50;91.78;;;50.60;;
25511;SDS011;13414;44.534;18.700;2023-03-13T00:58:19;81.25;;;43.38;;
25511;SDS011;13414;44.534;18.700;2023-03-13T01:00:48;67.40;;;36.92;;
25511;SDS011;13414;44.534;18.700;2023-03-13T01:03:16;93.40;;;49.17;;
25511;SDS011;13414;44.534;18.700;2023-03-13T01:05:43;101.47;;;56.72;;
25511;SDS011;13414;44.534;18.700;2023-03-13T01:08:11;108.25;;;59.30;;
25511;SDS011;13414;44.534;18.700;2023-03-13T01:10:38;118.75;;;63.92;;
25511;SDS011;13414;44.534;18.700;2023-03-13T01:13:06;117.95;;;63.70;;
25511;SDS011;13414;44.534;18.700;2023-03-13T01:15:34;105.20;;;57.67;;
25511;SDS011;13414;44.534;18.700;2023-03-13T01:18:03;102.60;;;56.97;;
25511;SDS011;13414;44.534;18.700;2023-03-13T01:20:31;81.07;;;47.35;;
25511;SDS011;13414;44.534;18.700;2023-03-13T01:22:58;83.03;;;45.33;;
25511;SDS011;13414;44.534;18.700;2023-03-13T01:25:26;85.88;;;44.83;;
25511;SDS011;13414;44.534;18.700;2023-03-13T01:27:53;80.18;;;44.78;;
25511;SDS011;13414;44.534;18.700;2023-03-13T01:30:21;80.38;;;44.80;;
25511;SDS011;13414;44.534;18.700;2023-03-13T01:32:48;78.95;;;44.33;;
25511;SDS011;13414;44.534;18.700;2023-03-13T01:35:18;84.60;;;45.80;;
25511;SDS011;13414;44.534;18.700;2023-03-13T01:37:46;82.03;;;46.95;;
25511;SDS011;13414;44.534;18.700;2023-03-13T01:40:13;99.32;;;52.63;;
25511;SDS011;13414;44.534;18.700;2023-03-13T01:42:48;102.90;;;54.85;;
25511;SDS011;13414;44.534;18.700;2023-03-13T01:48:19;89.28;;;50.08;;
25511;SDS011;13414;44.534;18.700;2023-03-13T01:50:51;99.30;;;55.58;;
25511;SDS011;13414;44.534;18.700;2023-03-13T01:53:26;102.78;;;55.63;;
25511;SDS011;13414;44.534;18.700;2023-03-13T01:55:56;110.82;;;59.65;;
25511;SDS011;13414;44.534;18.700;2023-03-13T01:58:25;118.00;;;63.13;;
25511;SDS011;13414;44.534;18.700;2023-03-13T02:00:55;111.10;;;60.58;;
25511;SDS011;13414;44.534;18.700;2023-03-13T02:03:25;104.72;;;56.13;;
25511;SDS011;13414;44.534;18.700;2023-03-13T02:05:55;100.82;;;54.20;;
25511;SDS011;13414;44.534;18.700;2023-03-13T02:08:28;88.30;;;49.58;;
25511;SDS011;13414;44.534;18.700;2023-03-13T02:11:01;88.45;;;49.10;;
25511;SDS011;13414;44.534;18.700;2023-03-13T02:13:36;93.80;;;51.30;;
25511;SDS011;13414;44.534;18.700;2023-03-13T02:16:03;86.03;;;49.47;;
25511;SDS011;13414;44.534;18.700;2023-03-13T02:18:33;94.97;;;51.13;;
25511;SDS011;13414;44.534;18.700;2023-03-13T02:21:07;119.65;;;63.78;;
25511;SDS011;13414;44.534;18.700;2023-03-13T02:23:41;82.57;;;45.85;;
25511;SDS011;13414;44.534;18.700;2023-03-13T02:26:17;84.82;;;46.35;;
25511;SDS011;13414;44.534;18.700;2023-03-13T02:28:45;61.10;;;33.17;;
25511;SDS011;13414;44.534;18.700;2023-03-13T02:31:15;61.60;;;34.08;;
25511;SDS011;13414;44.534;18.700;2023-03-13T02:33:44;57.08;;;32.72;;
25511;SDS011;13414;44.534;18.700;2023-03-13T02:36:16;50.63;;;28.70;;
25511;SDS011;13414;44.534;18.700;2023-03-13T02:38:45;53.78;;;28.75;;
25511;SDS011;13414;44.534;18.700;2023-03-13T02:41:22;43.75;;;25.40;;
25511;SDS011;13414;44.534;18.700;2023-03-13T02:43:53;53.20;;;29.02;;
25511;SDS011;13414;44.534;18.700;2023-03-13T02:46:20;46.97;;;27.70;;
25511;SDS011;13414;44.534;18.700;2023-03-13T02:48:52;45.97;;;25.85;;
25511;SDS011;13414;44.534;18.700;2023-03-13T02:51:24;38.58;;;22.20;;
25511;SDS011;13414;44.534;18.700;2023-03-13T02:53:56;49.55;;;28.13;;
25511;SDS011;13414;44.534;18.700;2023-03-13T02:56:28;52.03;;;29.25;;
25511;SDS011;13414;44.534;18.700;2023-03-13T02:59:00;58.55;;;34.30;;
25511;SDS011;13414;44.534;18.700;2023-03-13T03:01:28;52.10;;;31.63;;
25511;SDS011;13414;44.534;18.700;2023-03-13T03:03:55;53.35;;;31.05;;
25511;SDS011;13414;44.534;18.700;2023-03-13T03:06:23;51.45;;;28.90;;
25511;SDS011;13414;44.534;18.700;2023-03-13T03:08:51;51.20;;;27.52;;
25511;SDS011;13414;44.534;18.700;2023-03-13T03:11:18;55.00;;;29.15;;
25511;SDS011;13414;44.534;18.700;2023-03-13T03:13:53;46.47;;;27.40;;
25511;SDS011;13414;44.534;18.700;2023-03-13T03:16:21;52.63;;;29.10;;
25511;SDS011;13414;44.534;18.700;2023-03-13T03:18:49;54.25;;;30.95;;
25511;SDS011;13414;44.534;18.700;2023-03-13T03:21:16;53.90;;;30.02;;
25511;SDS011;13414;44.534;18.700;2023-03-13T03:23:43;48.97;;;27.55;;
25511;SDS011;13414;44.534;18.700;2023-03-13T03:26:11;47.15;;;28.23;;
25511;SDS011;13414;44.534;18.700;2023-03-13T03:28:38;49.78;;;29.08;;
25511;SDS011;13414;44.534;18.700;2023-03-13T03:31:14;48.85;;;27.38;;
25511;SDS011;13414;44.534;18.700;2023-03-13T03:33:42;46.83;;;24.88;;
25511;SDS011;13414;44.534;18.700;2023-03-13T03:36:13;45.22;;;25.35;;
25511;SDS011;13414;44.534;18.700;2023-03-13T03:38:43;45.95;;;24.10;;
25511;SDS011;13414;44.534;18.700;2023-03-13T03:41:13;43.15;;;23.75;;
25511;SDS011;13414;44.534;18.700;2023-03-13T03:43:42;49.17;;;28.33;;
25511;SDS011;13414;44.534;18.700;2023-03-13T03:46:12;43.60;;;25.45;;
25511;SDS011;13414;44.534;18.700;2023-03-13T03:48:41;46.35;;;27.05;;
25511;SDS011;13414;44.534;18.700;2023-03-13T03:51:10;50.55;;;28.25;;
25511;SDS011;13414;44.534;18.700;2023-03-13T03:53:40;49.03;;;26.92;;
25511;SDS011;13414;44.534;18.700;2023-03-13T03:56:08;45.63;;;25.92;;
25511;SDS011;13414;44.534;18.700;2023-03-13T03:58:41;44.53;;;25.92;;
25511;SDS011;13414;44.534;18.700;2023-03-13T04:01:25;44.10;;;27.15;;
25511;SDS011;13414;44.534;18.700;2023-03-13T04:03:53;49.05;;;27.92;;
25511;SDS011;13414;44.534;18.700;2023-03-13T04:06:21;46.17;;;28.08;;
25511;SDS011;13414;44.534;18.700;2023-03-13T04:08:49;42.45;;;23.77;;
25511;SDS011;13414;44.534;18.700;2023-03-13T04:11:21;38.10;;;23.02;;
25511;SDS011;13414;44.534;18.700;2023-03-13T04:13:52;50.58;;;28.60;;
25511;SDS011;13414;44.534;18.700;2023-03-13T04:16:20;56.05;;;30.15;;
25511;SDS011;13414;44.534;18.700;2023-03-13T04:18:50;46.72;;;27.83;;
25511;SDS011;13414;44.534;18.700;2023-03-13T04:21:19;56.90;;;31.02;;
25511;SDS011;13414;44.534;18.700;2023-03-13T04:23:54;45.08;;;27.25;;
25511;SDS011;13414;44.534;18.700;2023-03-13T04:26:22;55.58;;;30.23;;
25511;SDS011;13414;44.534;18.700;2023-03-13T04:28:52;46.38;;;26.67;;
25511;SDS011;13414;44.534;18.700;2023-03-13T04:31:35;41.65;;;23.42;;
25511;SDS011;13414;44.534;18.700;2023-03-13T04:34:24;41.13;;;24.55;;
25511;SDS011;13414;44.534;18.700;2023-03-13T04:37:03;43.97;;;25.88;;
25511;SDS011;13414;44.534;18.700;2023-03-13T04:39:41;43.75;;;25.33;;
25511;SDS011;13414;44.534;18.700;2023-03-13T04:42:35;44.28;;;25.85;;
25511;SDS011;13414;44.534;18.700;2023-03-13T04:45:23;46.83;;;25.13;;
25511;SDS011;13414;44.534;18.700;2023-03-13T04:48:15;43.00;;;24.80;;
25511;SDS011;13414;44.534;18.700;2023-03-13T04:51:01;46.38;;;26.73;;
25511;SDS011;13414;44.534;18.700;2023-03-13T04:53:49;45.50;;;26.00;;
25511;SDS011;13414;44.534;18.700;2023-03-13T04:56:48;46.88;;;25.90;;
25511;SDS011;13414;44.534;18.700;2023-03-13T04:59:42;43.50;;;23.63;;
25511;SDS011;13414;44.534;18.700;2023-03-13T05:02:21;40.42;;;22.52;;
25511;SDS011;13414;44.534;18.700;2023-03-13T05:05:12;53.90;;;30.95;;
25511;SDS011;13414;44.534;18.700;2023-03-13T05:07:56;50.05;;;27.85;;
25511;SDS011;13414;44.534;18.700;2023-03-13T05:10:40;50.45;;;31.48;;
25511;SDS011;13414;44.534;18.700;2023-03-13T05:13:25;52.90;;;31.90;;
25511;SDS011;13414;44.534;18.700;2023-03-13T05:15:57;58.72;;;32.22;;
25511;SDS011;13414;44.534;18.700;2023-03-13T05:18:43;54.05;;;31.83;;
25511;SDS011;13414;44.534;18.700;2023-03-13T05:21:26;61.97;;;35.50;;
25511;SDS011;13414;44.534;18.700;2023-03-13T05:24:06;68.32;;;40.03;;
25511;SDS011;13414;44.534;18.700;2023-03-13T05:26:44;63.83;;;38.83;;
25511;SDS011;13414;44.534;18.700;2023-03-13T05:29:25;65.53;;;38.30;;
25511;SDS011;13414;44.534;18.700;2023-03-13T05:32:08;69.28;;;39.92;;
25511;SDS011;13414;44.534;18.700;2023-03-13T05:35:01;64.47;;;38.25;;
25511;SDS011;13414;44.534;18.700;2023-03-13T05:37:45;62.97;;;36.53;;
25511;SDS011;13414;44.534;18.700;2023-03-13T05:40:30;81.25;;;47.83;;
25511;SDS011;13414;44.534;18.700;2023-03-13T05:43:24;83.78;;;47.10;;
25511;SDS011;13414;44.534;18.700;2023-03-13T05:46:21;86.10;;;48.50;;
25511;SDS011;13414;44.534;18.700;2023-03-13T05:49:00;93.80;;;52.03;;
25511;SDS011;13414;44.534;18.700;2023-03-13T05:51:43;130.65;;;71.43;;
25511;SDS011;13414;44.534;18.700;2023-03-13T05:54:43;124.78;;;68.03;;
25511;SDS011;13414;44.534;18.700;2023-03-13T05:57:12;112.13;;;59.30;;
25511;SDS011;13414;44.534;18.700;2023-03-13T05:59:51;116.95;;;62.40;;
25511;SDS011;13414;44.534;18.700;2023-03-13T06:02:40;95.85;;;49.38;;
25511;SDS011;13414;44.534;18.700;2023-03-13T06:05:11;124.72;;;59.78;;
25511;SDS011;13414;44.534;18.700;2023-03-13T06:07:39;136.15;;;66.43;;
25511;SDS011;13414;44.534;18.700;2023-03-13T06:10:08;108.00;;;57.05;;
25511;SDS011;13414;44.534;18.700;2023-03-13T06:12:38;115.88;;;61.08;;
25511;SDS011;13414;44.534;18.700;2023-03-13T06:15:09;111.20;;;60.67;;
25511;SDS011;13414;44.534;18.700;2023-03-13T06:17:50;105.30;;;54.03;;
25511;SDS011;13414;44.534;18.700;2023-03-13T06:20:17;103.63;;;54.90;;
25511;SDS011;13414;44.534;18.700;2023-03-13T06:22:45;106.35;;;57.95;;
25511;SDS011;13414;44.534;18.700;2023-03-13T06:25:13;99.60;;;54.88;;
25511;SDS011;13414;44.534;18.700;2023-03-13T06:27:42;98.40;;;53.58;;
25511;SDS011;13414;44.534;18.700;2023-03-13T06:30:09;109.43;;;57.05;;
25511;SDS011;13414;44.534;18.700;2023-03-13T06:32:38;106.75;;;57.67;;
25511;SDS011;13414;44.534;18.700;2023-03-13T06:35:05;111.25;;;59.35;;
25511;SDS011;13414;44.534;18.700;2023-03-13T06:37:33;113.22;;;58.65;;
25511;SDS011;13414;44.534;18.700;2023-03-13T06:40:00;110.72;;;58.63;;
25511;SDS011;13414;44.534;18.700;2023-03-13T06:42:31;111.15;;;58.65;;
25511;SDS011;13414;44.534;18.700;2023-03-13T06:45:00;111.85;;;57.38;;
25511;SDS011;13414;44.534;18.700;2023-03-13T06:47:29;103.90;;;55.88;;
25511;SDS011;13414;44.534;18.700;2023-03-13T06:49:57;100.28;;;54.45;;
25511;SDS011;13414;44.534;18.700;2023-03-13T06:52:25;98.68;;;53.28;;
25511;SDS011;13414;44.534;18.700;2023-03-13T06:54:52;93.75;;;52.22;;
25511;SDS011;13414;44.534;18.700;2023-03-13T06:57:19;103.22;;;55.13;;
25511;SDS011;13414;44.534;18.700;2023-03-13T06:59:47;94.72;;;51.25;;
25511;SDS011;13414;44.534;18.700;2023-03-13T07:02:16;87.85;;;48.78;;
25511;SDS011;13414;44.534;18.700;2023-03-13T07:04:43;90.15;;;49.80;;
25511;SDS011;13414;44.534;18.700;2023-03-13T07:07:11;80.45;;;47.70;;
25511;SDS011;13414;44.534;18.700;2023-03-13T07:09:38;81.93;;;47.28;;
25511;SDS011;13414;44.534;18.700;2023-03-13T07:12:06;78.43;;;45.15;;
25511;SDS011;13414;44.534;18.700;2023-03-13T07:14:34;84.72;;;44.55;;
25511;SDS011;13414;44.534;18.700;2023-03-13T07:17:01;73.57;;;44.50;;
25511;SDS011;13414;44.534;18.700;2023-03-13T07:19:30;80.38;;;46.38;;
25511;SDS011;13414;44.534;18.700;2023-03-13T07:21:58;70.45;;;41.88;;
25511;SDS011;13414;44.534;18.700;2023-03-13T07:24:25;69.53;;;40.05;;
25511;SDS011;13414;44.534;18.700;2023-03-13T07:26:52;71.75;;;41.95;;
25511;SDS011;13414;44.534;18.700;2023-03-13T07:29:20;70.97;;;39.42;;
25511;SDS011;13414;44.534;18.700;2023-03-13T07:31:47;66.53;;;39.65;;
25511;SDS011;13414;44.534;18.700;2023-03-13T07:34:15;59.58;;;35.40;;
25511;SDS011;13414;44.534;18.700;2023-03-13T07:36:44;57.55;;;34.47;;
25511;SDS011;13414;44.534;18.700;2023-03-13T07:39:11;58.38;;;33.60;;
25511;SDS011;13414;44.534;18.700;2023-03-13T07:41:39;53.15;;;33.47;;
25511;SDS011;13414;44.534;18.700;2023-03-13T07:44:06;60.20;;;35.67;;
25511;SDS011;13414;44.534;18.700;2023-03-13T07:46:34;59.95;;;35.15;;
25511;SDS011;13414;44.534;18.700;2023-03-13T07:49:01;66.03;;;37.63;;
25511;SDS011;13414;44.534;18.700;2023-03-13T07:51:28;78.43;;;44.92;;
25511;SDS011;13414;44.534;18.700;2023-03-13T07:53:57;65.47;;;40.22;;
25511;SDS011;13414;44.534;18.700;2023-03-13T07:56:25;59.70;;;36.40;;
25511;SDS011;13414;44.534;18.700;2023-03-13T07:58:52;64.00;;;36.83;;
25511;SDS011;13414;44.534;18.700;2023-03-13T08:01:20;52.05;;;32.13;;
25511;SDS011;13414;44.534;18.700;2023-03-13T08:03:49;59.08;;;33.88;;
25511;SDS011;13414;44.534;18.700;2023-03-13T08:06:17;63.17;;;33.05;;
25511;SDS011;13414;44.534;18.700;2023-03-13T08:08:47;48.10;;;29.85;;
25511;SDS011;13414;44.534;18.700;2023-03-13T08:11:17;49.67;;;30.10;;
25511;SDS011;13414;44.534;18.700;2023-03-13T08:13:45;50.10;;;29.83;;
25511;SDS011;13414;44.534;18.700;2023-03-13T08:16:15;46.20;;;28.73;;
25511;SDS011;13414;44.534;18.700;2023-03-13T08:18:44;42.42;;;25.55;;
25511;SDS011;13414;44.534;18.700;2023-03-13T08:21:14;43.25;;;25.48;;
25511;SDS011;13414;44.534;18.700;2023-03-13T08:23:43;39.13;;;22.27;;
25511;SDS011;13414;44.534;18.700;2023-03-13T08:26:11;38.20;;;21.70;;
25511;SDS011;13414;44.534;18.700;2023-03-13T08:28:41;42.05;;;23.05;;
25511;SDS011;13414;44.534;18.700;2023-03-13T08:31:10;38.47;;;21.85;;
25511;SDS011;13414;44.534;18.700;2023-03-13T08:33:39;40.08;;;24.00;;
25511;SDS011;13414;44.534;18.700;2023-03-13T08:36:12;37.63;;;22.08;;
25511;SDS011;13414;44.534;18.700;2023-03-13T08:38:42;43.45;;;25.38;;
25511;SDS011;13414;44.534;18.700;2023-03-13T08:41:10;42.05;;;24.55;;
25511;SDS011;13414;44.534;18.700;2023-03-13T08:43:37;42.63;;;24.33;;
25511;SDS011;13414;44.534;18.700;2023-03-13T08:46:06;41.10;;;25.95;;
25511;SDS011;13414;44.534;18.700;2023-03-13T08:48:34;48.60;;;27.38;;
25511;SDS011;13414;44.534;18.700;2023-03-13T08:51:01;49.03;;;29.23;;
25511;SDS011;13414;44.534;18.700;2023-03-13T08:53:30;46.88;;;28.83;;
25511;SDS011;13414;44.534;18.700;2023-03-13T08:55:59;46.40;;;29.40;;
25511;SDS011;13414;44.534;18.700;2023-03-13T08:58:26;49.67;;;30.50;;
25511;SDS011;13414;44.534;18.700;2023-03-13T09:01:00;49.67;;;29.45;;
25511;SDS011;13414;44.534;18.700;2023-03-13T09:03:30;44.58;;;28.92;;
25511;SDS011;13414;44.534;18.700;2023-03-13T09:05:58;48.53;;;27.98;;
25511;SDS011;13414;44.534;18.700;2023-03-13T09:08:27;44.03;;;25.92;;
25511;SDS011;13414;44.534;18.700;2023-03-13T09:10:55;66.45;;;42.83;;
25511;SDS011;13414;44.534;18.700;2023-03-13T09:13:24;39.25;;;24.05;;
25511;SDS011;13414;44.534;18.700;2023-03-13T09:15:53;40.55;;;23.40;;
25511;SDS011;13414;44.534;18.700;2023-03-13T09:18:21;32.80;;;19.05;;
25511;SDS011;13414;44.534;18.700;2023-03-13T09:20:50;29.15;;;18.90;;
25511;SDS011;13414;44.534;18.700;2023-03-13T09:23:18;35.75;;;20.55;;
25511;SDS011;13414;44.534;18.700;2023-03-13T09:25:46;42.53;;;21.30;;
25511;SDS011;13414;44.534;18.700;2023-03-13T09:28:14;25.65;;;14.70;;
25511;SDS011;13414;44.534;18.700;2023-03-13T09:30:41;27.35;;;17.17;;
25511;SDS011;13414;44.534;18.700;2023-03-13T09:33:09;30.75;;;16.13;;
25511;SDS011;13414;44.534;18.700;2023-03-13T09:35:37;24.58;;;15.13;;
25511;SDS011;13414;44.534;18.700;2023-03-13T09:38:06;21.75;;;12.80;;
25511;SDS011;13414;44.534;18.700;2023-03-13T09:40:36;22.65;;;12.05;;
25511;SDS011;13414;44.534;18.700;2023-03-13T09:43:10;20.88;;;12.07;;
25511;SDS011;13414;44.534;18.700;2023-03-13T09:45:51;21.83;;;12.80;;
25511;SDS011;13414;44.534;18.700;2023-03-13T09:48:25;22.13;;;12.50;;
25511;SDS011;13414;44.534;18.700;2023-03-13T09:50:59;19.73;;;11.90;;
25511;SDS011;13414;44.534;18.700;2023-03-13T09:53:35;21.02;;;14.57;;
25511;SDS011;13414;44.534;18.700;2023-03-13T09:56:10;21.77;;;13.15;;
25511;SDS011;13414;44.534;18.700;2023-03-13T09:58:43;17.88;;;11.98;;
25511;SDS011;13414;44.534;18.700;2023-03-13T10:01:16;19.88;;;11.30;;
25511;SDS011;13414;44.534;18.700;2023-03-13T10:03:53;19.40;;;11.85;;
25511;SDS011;13414;44.534;18.700;2023-03-13T10:06:32;18.20;;;11.77;;
25511;SDS011;13414;44.534;18.700;2023-03-13T10:09:07;15.63;;;9.77;;
25511;SDS011;13414;44.534;18.700;2023-03-13T10:11:47;20.27;;;12.15;;
25511;SDS011;13414;44.534;18.700;2023-03-13T10:14:19;18.13;;;11.73;;
25511;SDS011;13414;44.534;18.700;2023-03-13T10:16:53;20.02;;;13.07;;
25511;SDS011;13414;44.534;18.700;2023-03-13T10:19:26;19.65;;;13.25;;
25511;SDS011;13414;44.534;18.700;2023-03-13T10:21:57;16.85;;;10.15;;
25511;SDS011;13414;44.534;18.700;2023-03-13T10:24:31;12.07;;;8.02;;
25511;SDS011;13414;44.534;18.700;2023-03-13T10:27:03;11.15;;;7.38;;
25511;SDS011;13414;44.534;18.700;2023-03-13T10:29:30;12.70;;;7.15;;
25511;SDS011;13414;44.534;18.700;2023-03-13T10:31:58;11.27;;;7.32;;
25511;SDS011;13414;44.534;18.700;2023-03-13T10:34:27;11.35;;;7.18;;
25511;SDS011;13414;44.534;18.700;2023-03-13T10:36:57;13.93;;;8.77;;
25511;SDS011;13414;44.534;18.700;2023-03-13T10:39:26;12.80;;;6.47;;
25511;SDS011;13414;44.534;18.700;2023-03-13T10:42:07;9.48;;;5.32;;
25511;SDS011;13414;44.534;18.700;2023-03-13T10:44:36;8.40;;;5.43;;
25511;SDS011;13414;44.534;18.700;2023-03-13T10:47:04;8.68;;;5.53;;
25511;SDS011;13414;44.534;18.700;2023-03-13T10:49:32;9.85;;;5.90;;
25511;SDS011;13414;44.534;18.700;2023-03-13T10:52:21;12.55;;;6.47;;
25511;SDS011;13414;44.534;18.700;2023-03-13T10:54:58;9.00;;;5.82;;
25511;SDS011;13414;44.534;18.700;2023-03-13T10:57:31;7.22;;;3.72;;
25511;SDS011;13414;44.534;18.700;2023-03-13T11:00:00;6.80;;;3.35;;
25511;SDS011;13414;44.534;18.700;2023-03-13T11:02:48;6.63;;;3.95;;
25511;SDS011;13414;44.534;18.700;2023-03-13T11:05:28;6.97;;;3.28;;
25511;SDS011;13414;44.534;18.700;2023-03-13T11:07:57;10.43;;;3.55;;
25511;SDS011;13414;44.534;18.700;2023-03-13T11:13:04;10.18;;;4.43;;
25511;SDS011;13414;44.534;18.700;2023-03-13T11:15:33;6.65;;;3.47;;
25511;SDS011;13414;44.534;18.700;2023-03-13T11:18:06;5.03;;;2.03;;
25511;SDS011;13414;44.534;18.700;2023-03-13T11:20:41;3.33;;;1.80;;
25511;SDS011;13414;44.534;18.700;2023-03-13T11:23:13;4.72;;;2.47;;
25511;SDS011;13414;44.534;18.700;2023-03-13T11:25:48;3.97;;;2.15;;
25511;SDS011;13414;44.534;18.700;2023-03-13T11:28:28;5.78;;;2.30;;
25511;SDS011;13414;44.534;18.700;2023-03-13T11:31:11;4.47;;;1.83;;
25511;SDS011;13414;44.534;18.700;2023-03-13T11:33:46;4.07;;;2.42;;
25511;SDS011;13414;44.534;18.700;2023-03-13T11:36:22;2.92;;;1.33;;
25511;SDS011;13414;44.534;18.700;2023-03-13T11:38:54;4.68;;;2.40;;
25511;SDS011;13414;44.534;18.700;2023-03-13T11:41:35;6.05;;;3.75;;
25511;SDS011;13414;44.534;18.700;2023-03-13T11:44:29;8.05;;;5.03;;
25511;SDS011;13414;44.534;18.700;2023-03-13T11:47:10;4.45;;;2.50;;
25511;SDS011;13414;44.534;18.700;2023-03-13T11:52:47;20.88;;;13.27;;
25511;SDS011;13414;44.534;18.700;2023-03-13T11:55:29;4.68;;;2.70;;
25511;SDS011;13414;44.534;18.700;2023-03-13T11:58:15;5.53;;;3.50;;
25511;SDS011;13414;44.534;18.700;2023-03-13T12:01:00;5.00;;;2.78;;
25511;SDS011;13414;44.534;18.700;2023-03-13T12:03:33;6.00;;;1.92;;
25511;SDS011;13414;44.534;18.700;2023-03-13T12:06:05;5.05;;;2.72;;
25511;SDS011;13414;44.534;18.700;2023-03-13T12:08:39;5.43;;;2.90;;
25511;SDS011;13414;44.534;18.700;2023-03-13T12:11:12;8.50;;;4.90;;
25511;SDS011;13414;44.534;18.700;2023-03-13T12:13:43;4.35;;;2.47;;
25511;SDS011;13414;44.534;18.700;2023-03-13T12:16:18;8.88;;;5.43;;
25511;SDS011;13414;44.534;18.700;2023-03-13T12:18:49;12.43;;;7.82;;
25511;SDS011;13414;44.534;18.700;2023-03-13T12:21:19;43.83;;;32.22;;
25511;SDS011;13414;44.534;18.700;2023-03-13T12:23:53;11.60;;;8.27;;
25511;SDS011;13414;44.534;18.700;2023-03-13T12:26:27;5.20;;;2.97;;
25511;SDS011;13414;44.534;18.700;2023-03-13T12:29:03;12.25;;;7.63;;
25511;SDS011;13414;44.534;18.700;2023-03-13T12:31:38;9.07;;;4.27;;
25511;SDS011;13414;44.534;18.700;2023-03-13T12:34:11;11.93;;;8.23;;
25511;SDS011;13414;44.534;18.700;2023-03-13T12:36:45;9.13;;;4.88;;
25511;SDS011;13414;44.534;18.700;2023-03-13T12:39:19;9.50;;;6.50;;
25511;SDS011;13414;44.534;18.700;2023-03-13T12:41:57;7.13;;;4.00;;
25511;SDS011;13414;44.534;18.700;2023-03-13T12:44:34;5.95;;;2.97;;
25511;SDS011;13414;44.534;18.700;2023-03-13T12:47:06;7.68;;;3.50;;
25511;SDS011;13414;44.534;18.700;2023-03-13T12:49:49;6.82;;;2.80;;
25511;SDS011;13414;44.534;18.700;2023-03-13T12:52:52;7.38;;;4.25;;
25511;SDS011;13414;44.534;18.700;2023-03-13T12:58:39;9.43;;;3.97;;
25511;SDS011;13414;44.534;18.700;2023-03-13T13:01:14;6.00;;;3.38;;
25511;SDS011;13414;44.534;18.700;2023-03-13T13:03:51;6.07;;;3.20;;
25511;SDS011;13414;44.534;18.700;2023-03-13T13:06:22;7.13;;;3.42;;
25511;SDS011;13414;44.534;18.700;2023-03-13T13:09:00;7.57;;;3.60;;
25511;SDS011;13414;44.534;18.700;2023-03-13T13:17:25;8.55;;;5.35;;
25511;SDS011;13414;44.534;18.700;2023-03-13T13:20:30;8.48;;;4.18;;
25511;SDS011;13414;44.534;18.700;2023-03-13T13:32:37;4.13;;;2.28;;
25511;SDS011;13414;44.534;18.700;2023-03-13T13:35:26;6.93;;;4.47;;
25511;SDS011;13414;44.534;18.700;2023-03-13T13:41:19;7.72;;;5.20;;
25511;SDS011;13414;44.534;18.700;2023-03-13T13:46:49;6.18;;;3.22;;
25511;SDS011;13414;44.534;18.700;2023-03-13T13:49:19;6.28;;;2.50;;
25511;SDS011;13414;44.534;18.700;2023-03-13T13:55:14;5.47;;;2.53;;
25511;SDS011;13414;44.534;18.700;2023-03-13T13:58:10;3.72;;;2.15;;
25511;SDS011;13414;44.534;18.700;2023-03-13T14:00:40;5.25;;;3.13;;
25511;SDS011;13414;44.534;18.700;2023-03-13T14:03:15;5.80;;;2.30;;
25511;SDS011;13414;44.534;18.700;2023-03-13T14:05:48;6.57;;;2.88;;
25511;SDS011;13414;44.534;18.700;2023-03-13T14:08:19;4.20;;;2.10;;
25511;SDS011;13414;44.534;18.700;2023-03-13T14:10:52;4.85;;;2.47;;
25511;SDS011;13414;44.534;18.700;2023-03-13T14:13:31;66.55;;;43.25;;
25511;SDS011;13414;44.534;18.700;2023-03-13T14:16:08;52.25;;;35.17;;
25511;SDS011;13414;44.534;18.700;2023-03-13T14:18:46;12.85;;;8.25;;
25511;SDS011;13414;44.534;18.700;2023-03-13T14:21:14;33.42;;;21.95;;
25511;SDS011;13414;44.534;18.700;2023-03-13T14:23:48;8.10;;;4.47;;
25511;SDS011;13414;44.534;18.700;2023-03-13T14:26:17;77.22;;;46.20;;
25511;SDS011;13414;44.534;18.700;2023-03-13T14:28:47;46.42;;;31.67;;
25511;SDS011;13414;44.534;18.700;2023-03-13T14:31:21;38.05;;;25.35;;
25511;SDS011;13414;44.534;18.700;2023-03-13T14:33:50;9.30;;;5.60;;
25511;SDS011;13414;44.534;18.700;2023-03-13T14:36:17;15.82;;;10.25;;
25511;SDS011;13414;44.534;18.700;2023-03-13T14:38:52;15.88;;;10.63;;
25511;SDS011;13414;44.534;18.700;2023-03-13T14:41:29;21.38;;;12.75;;
25511;SDS011;13414;44.534;18.700;2023-03-13T14:44:02;7.22;;;3.55;;
25511;SDS011;13414;44.534;18.700;2023-03-13T14:46:32;5.90;;;2.88;;
25511;SDS011;13414;44.534;18.700;2023-03-13T14:49:04;6.50;;;3.42;;
25511;SDS011;13414;44.534;18.700;2023-03-13T14:51:36;4.25;;;2.55;;
25511;SDS011;13414;44.534;18.700;2023-03-13T14:54:05;5.88;;;3.55;;
25511;SDS011;13414;44.534;18.700;2023-03-13T14:57:02;8.15;;;2.72;;
25511;SDS011;13414;44.534;18.700;2023-03-13T14:59:31;6.32;;;3.20;;
25511;SDS011;13414;44.534;18.700;2023-03-13T15:01:59;5.93;;;3.03;;
25511;SDS011;13414;44.534;18.700;2023-03-13T15:04:47;5.45;;;3.50;;
25511;SDS011;13414;44.534;18.700;2023-03-13T15:07:16;5.43;;;3.22;;
25511;SDS011;13414;44.534;18.700;2023-03-13T15:09:44;6.32;;;2.83;;
25511;SDS011;13414;44.534;18.700;2023-03-13T15:12:14;6.20;;;3.70;;
25511;SDS011;13414;44.534;18.700;2023-03-13T15:14:44;10.13;;;7.20;;
25511;SDS011;13414;44.534;18.700;2023-03-13T15:17:14;12.23;;;5.00;;
25511;SDS011;13414;44.534;18.700;2023-03-13T15:19:46;6.97;;;3.55;;
25511;SDS011;13414;44.534;18.700;2023-03-13T15:22:16;12.57;;;7.82;;